sensor_id;sensor_type;location;lat;lon;timestamp;pressure;altitude;pressure_sealevel;temperature;humidity
61682;BME280;47577;43.610;25.010;2022-08-21T00:02:25;99775.25;;;25.06;60.06
61682;BME280;47577;43.610;25.010;2022-08-21T00:04:52;99782.84;;;24.76;59.52
61682;BME280;47577;43.610;25.010;2022-08-21T00:07:19;99765.16;;;24.18;62.15
61682;BME280;47577;43.610;25.010;2022-08-21T00:09:46;99755.94;;;24.29;61.80
61682;BME280;47577;43.610;25.010;2022-08-21T00:12:12;99773.97;;;24.30;62.36
61682;BME280;47577;43.610;25.010;2022-08-21T00:14:37;99769.06;;;24.34;62.51
61682;BME280;47577;43.610;25.010;2022-08-21T00:17:04;99771.69;;;24.43;62.93
61682;BME280;47577;43.610;25.010;2022-08-21T00:19:31;99772.84;;;24.23;64.43
61682;BME280;47577;43.610;25.010;2022-08-21T00:21:56;99775.88;;;24.20;64.84
61682;BME280;47577;43.610;25.010;2022-08-21T00:24:23;99761.38;;;24.29;62.80
61682;BME280;47577;43.610;25.010;2022-08-21T00:26:50;99779.00;;;24.43;62.19
61682;BME280;47577;43.610;25.010;2022-08-21T00:29:15;99769.72;;;24.54;61.02
61682;BME280;47577;43.610;25.010;2022-08-21T00:31:42;99757.34;;;24.33;61.77
61682;BME280;47577;43.610;25.010;2022-08-21T00:34:09;99732.19;;;24.31;63.34
61682;BME280;47577;43.610;25.010;2022-08-21T00:36:35;99722.25;;;23.86;65.04
61682;BME280;47577;43.610;25.010;2022-08-21T00:39:03;99733.84;;;23.60;65.24
61682;BME280;47577;43.610;25.010;2022-08-21T00:41:29;99740.47;;;23.48;64.85
61682;BME280;47577;43.610;25.010;2022-08-21T00:43:55;99732.75;;;23.53;67.11
61682;BME280;47577;43.610;25.010;2022-08-21T00:46:22;99731.50;;;23.47;65.72
61682;BME280;47577;43.610;25.010;2022-08-21T00:48:48;99739.16;;;23.24;68.20
61682;BME280;47577;43.610;25.010;2022-08-21T00:51:17;99723.09;;;22.56;72.76
61682;BME280;47577;43.610;25.010;2022-08-21T00:53:49;99719.09;;;22.70;74.90
61682;BME280;47577;43.610;25.010;2022-08-21T00:56:17;99710.38;;;22.76;73.50
61682;BME280;47577;43.610;25.010;2022-08-21T00:58:44;99737.88;;;22.81;74.53
61682;BME280;47577;43.610;25.010;2022-08-21T01:01:10;99728.22;;;22.59;72.23
61682;BME280;47577;43.610;25.010;2022-08-21T01:03:36;99696.59;;;21.62;73.85
61682;BME280;47577;43.610;25.010;2022-08-21T01:06:04;99680.84;;;21.36;76.38
61682;BME280;47577;43.610;25.010;2022-08-21T01:08:31;99668.00;;;21.79;79.05
61682;BME280;47577;43.610;25.010;2022-08-21T01:10:57;99661.16;;;21.84;79.40
61682;BME280;47577;43.610;25.010;2022-08-21T01:13:23;99651.47;;;22.01;77.84
61682;BME280;47577;43.610;25.010;2022-08-21T01:15:52;99640.94;;;22.08;78.23
61682;BME280;47577;43.610;25.010;2022-08-21T01:18:19;99636.50;;;21.97;77.42
61682;BME280;47577;43.610;25.010;2022-08-21T01:21:09;99647.16;;;22.18;76.55
61682;BME280;47577;43.610;25.010;2022-08-21T01:23:37;99624.06;;;22.24;75.77
61682;BME280;47577;43.610;25.010;2022-08-21T01:26:04;99622.38;;;22.33;76.72
61682;BME280;47577;43.610;25.010;2022-08-21T01:28:33;99610.53;;;22.14;77.14
61682;BME280;47577;43.610;25.010;2022-08-21T01:31:01;99593.09;;;21.69;78.83
61682;BME280;47577;43.610;25.010;2022-08-21T01:33:28;99596.59;;;22.09;78.13
61682;BME280;47577;43.610;25.010;2022-08-21T01:35:54;99598.84;;;22.23;78.35
61682;BME280;47577;43.610;25.010;2022-08-21T01:38:19;99588.50;;;21.99;78.42
61682;BME280;47577;43.610;25.010;2022-08-21T01:40:45;99593.75;;;22.01;77.34
61682;BME280;47577;43.610;25.010;2022-08-21T01:43:11;99587.66;;;21.99;77.83
61682;BME280;47577;43.610;25.010;2022-08-21T01:45:37;99585.47;;;22.12;77.43
61682;BME280;47577;43.610;25.010;2022-08-21T01:48:03;99590.50;;;21.97;79.09
61682;BME280;47577;43.610;25.010;2022-08-21T01:50:29;99590.75;;;22.14;79.40
61682;BME280;47577;43.610;25.010;2022-08-21T01:52:54;99601.41;;;22.25;80.07
61682;BME280;47577;43.610;25.010;2022-08-21T01:55:21;99600.63;;;22.05;79.56
61682;BME280;47577;43.610;25.010;2022-08-21T01:57:47;99581.72;;;21.76;80.26
61682;BME280;47577;43.610;25.010;2022-08-21T02:00:17;99598.59;;;22.07;80.19
61682;BME280;47577;43.610;25.010;2022-08-21T02:02:43;99582.66;;;22.04;79.46
61682;BME280;47577;43.610;25.010;2022-08-21T02:05:10;99583.13;;;21.70;80.04
61682;BME280;47577;43.610;25.010;2022-08-21T02:07:50;99576.59;;;21.63;80.57
61682;BME280;47577;43.610;25.010;2022-08-21T02:10:23;99591.34;;;21.98;79.91
61682;BME280;47577;43.610;25.010;2022-08-21T02:12:49;99587.75;;;22.17;79.72
61682;BME280;47577;43.610;25.010;2022-08-21T02:15:16;99589.19;;;22.21;80.38
61682;BME280;47577;43.610;25.010;2022-08-21T02:17:45;99604.66;;;22.28;80.10
61682;BME280;47577;43.610;25.010;2022-08-21T02:20:16;99625.25;;;22.12;80.67
61682;BME280;47577;43.610;25.010;2022-08-21T02:22:43;99633.94;;;21.96;79.62
61682;BME280;47577;43.610;25.010;2022-08-21T02:25:09;99643.25;;;21.33;82.65
61682;BME280;47577;43.610;25.010;2022-08-21T02:27:42;99642.75;;;20.98;84.82
61682;BME280;47577;43.610;25.010;2022-08-21T02:30:12;99639.31;;;21.37;83.69
61682;BME280;47577;43.610;25.010;2022-08-21T02:32:38;99637.34;;;21.59;83.11
61682;BME280;47577;43.610;25.010;2022-08-21T02:35:04;99649.91;;;21.69;82.75
61682;BME280;47577;43.610;25.010;2022-08-21T02:37:30;99652.31;;;21.82;83.84
61682;BME280;47577;43.610;25.010;2022-08-21T02:39:56;99652.91;;;21.86;81.27
61682;BME280;47577;43.610;25.010;2022-08-21T02:42:21;99663.28;;;21.51;82.69
61682;BME280;47577;43.610;25.010;2022-08-21T02:44:47;99670.84;;;21.67;81.65
61682;BME280;47577;43.610;25.010;2022-08-21T02:47:14;99666.00;;;21.71;80.69
61682;BME280;47577;43.610;25.010;2022-08-21T02:49:39;99656.03;;;21.81;81.30
61682;BME280;47577;43.610;25.010;2022-08-21T02:52:05;99665.00;;;22.01;79.79
61682;BME280;47577;43.610;25.010;2022-08-21T02:54:31;99667.13;;;21.98;78.52
61682;BME280;47577;43.610;25.010;2022-08-21T02:56:57;99667.72;;;22.01;79.11
61682;BME280;47577;43.610;25.010;2022-08-21T02:59:23;99675.50;;;22.14;79.08
61682;BME280;47577;43.610;25.010;2022-08-21T03:01:48;99683.63;;;22.14;79.68
61682;BME280;47577;43.610;25.010;2022-08-21T03:04:14;99678.38;;;22.22;79.25
61682;BME280;47577;43.610;25.010;2022-08-21T03:06:40;99683.94;;;22.21;78.99
61682;BME280;47577;43.610;25.010;2022-08-21T03:09:05;99682.91;;;22.22;77.36
61682;BME280;47577;43.610;25.010;2022-08-21T03:11:31;99691.94;;;22.32;76.16
61682;BME280;47577;43.610;25.010;2022-08-21T03:13:57;99671.94;;;22.23;77.89
61682;BME280;47577;43.610;25.010;2022-08-21T03:16:22;99685.63;;;22.22;76.71
61682;BME280;47577;43.610;25.010;2022-08-21T03:18:48;99688.06;;;22.25;77.72
61682;BME280;47577;43.610;25.010;2022-08-21T03:21:13;99693.19;;;22.18;78.82
61682;BME280;47577;43.610;25.010;2022-08-21T03:23:39;99695.88;;;22.28;78.90
61682;BME280;47577;43.610;25.010;2022-08-21T03:26:07;99684.94;;;22.20;78.20
61682;BME280;47577;43.610;25.010;2022-08-21T03:28:33;99677.66;;;22.20;78.18
61682;BME280;47577;43.610;25.010;2022-08-21T03:30:59;99679.66;;;22.18;78.21
61682;BME280;47577;43.610;25.010;2022-08-21T03:33:24;99693.19;;;22.18;78.10
61682;BME280;47577;43.610;25.010;2022-08-21T03:36:00;99698.88;;;22.15;78.67
61682;BME280;47577;43.610;25.010;2022-08-21T03:38:29;99698.59;;;22.18;77.84
61682;BME280;47577;43.610;25.010;2022-08-21T03:40:55;99693.75;;;22.32;76.47
61682;BME280;47577;43.610;25.010;2022-08-21T03:43:21;99697.75;;;22.47;74.83
61682;BME280;47577;43.610;25.010;2022-08-21T03:45:47;99714.00;;;22.47;74.17
61682;BME280;47577;43.610;25.010;2022-08-21T03:48:13;99701.72;;;22.23;76.20
61682;BME280;47577;43.610;25.010;2022-08-21T03:50:41;99709.41;;;22.28;78.96
61682;BME280;47577;43.610;25.010;2022-08-21T03:53:10;99716.69;;;22.27;78.76
61682;BME280;47577;43.610;25.010;2022-08-21T03:55:36;99719.41;;;22.27;79.25
61682;BME280;47577;43.610;25.010;2022-08-21T03:58:02;99722.25;;;22.16;79.12
61682;BME280;47577;43.610;25.010;2022-08-21T04:00:28;99724.69;;;22.19;77.63
61682;BME280;47577;43.610;25.010;2022-08-21T04:02:54;99727.53;;;22.18;77.64
61682;BME280;47577;43.610;25.010;2022-08-21T04:05:20;99741.50;;;22.23;78.01
61682;BME280;47577;43.610;25.010;2022-08-21T04:08:00;99737.75;;;22.24;78.48
61682;BME280;47577;43.610;25.010;2022-08-21T04:10:30;99732.66;;;22.11;79.59
61682;BME280;47577;43.610;25.010;2022-08-21T04:12:56;99731.94;;;21.99;80.28
61682;BME280;47577;43.610;25.010;2022-08-21T04:15:24;99727.81;;;21.95;81.02
61682;BME280;47577;43.610;25.010;2022-08-21T04:17:50;99713.56;;;21.93;81.27
61682;BME280;47577;43.610;25.010;2022-08-21T04:20:17;99725.69;;;22.08;80.80
61682;BME280;47577;43.610;25.010;2022-08-21T04:22:43;99736.63;;;22.07;79.04
61682;BME280;47577;43.610;25.010;2022-08-21T04:25:10;99738.22;;;22.00;80.20
61682;BME280;47577;43.610;25.010;2022-08-21T04:27:36;99734.72;;;21.59;80.20
61682;BME280;47577;43.610;25.010;2022-08-21T04:30:03;99735.50;;;21.80;80.59
61682;BME280;47577;43.610;25.010;2022-08-21T04:32:29;99733.22;;;21.85;80.37
61682;BME280;47577;43.610;25.010;2022-08-21T04:35:07;99730.09;;;21.90;81.17
61682;BME280;47577;43.610;25.010;2022-08-21T04:37:34;99723.53;;;21.92;79.71
61682;BME280;47577;43.610;25.010;2022-08-21T04:40:04;99747.03;;;22.12;80.41
61682;BME280;47577;43.610;25.010;2022-08-21T04:42:30;99737.63;;;22.06;81.35
61682;BME280;47577;43.610;25.010;2022-08-21T04:44:58;99732.81;;;22.19;80.70
61682;BME280;47577;43.610;25.010;2022-08-21T04:47:24;99736.06;;;22.23;79.42
61682;BME280;47577;43.610;25.010;2022-08-21T04:49:50;99732.41;;;22.34;80.12
61682;BME280;47577;43.610;25.010;2022-08-21T04:52:19;99730.41;;;22.36;79.13
61682;BME280;47577;43.610;25.010;2022-08-21T04:54:47;99740.53;;;22.43;80.98
61682;BME280;47577;43.610;25.010;2022-08-21T04:57:17;99741.09;;;22.47;80.28
61682;BME280;47577;43.610;25.010;2022-08-21T04:59:49;99738.09;;;22.50;79.33
61682;BME280;47577;43.610;25.010;2022-08-21T05:02:17;99748.75;;;22.61;79.60
61682;BME280;47577;43.610;25.010;2022-08-21T05:04:48;99747.59;;;22.64;79.97
61682;BME280;47577;43.610;25.010;2022-08-21T05:07:22;99753.13;;;22.72;78.93
61682;BME280;47577;43.610;25.010;2022-08-21T05:09:48;99753.00;;;22.74;79.30
61682;BME280;47577;43.610;25.010;2022-08-21T05:12:14;99742.16;;;22.74;79.83
61682;BME280;47577;43.610;25.010;2022-08-21T05:14:40;99727.75;;;22.83;79.03
61682;BME280;47577;43.610;25.010;2022-08-21T05:17:08;99740.25;;;22.94;77.95
61682;BME280;47577;43.610;25.010;2022-08-21T05:19:34;99727.81;;;23.01;77.97
61682;BME280;47577;43.610;25.010;2022-08-21T05:21:59;99720.69;;;23.10;78.21
61682;BME280;47577;43.610;25.010;2022-08-21T05:24:26;99732.00;;;23.33;78.71
61682;BME280;47577;43.610;25.010;2022-08-21T05:26:52;99721.41;;;23.40;77.64
61682;BME280;47577;43.610;25.010;2022-08-21T05:29:18;99725.34;;;23.45;76.40
61682;BME280;47577;43.610;25.010;2022-08-21T05:31:44;99723.59;;;23.54;77.35
61682;BME280;47577;43.610;25.010;2022-08-21T05:34:11;99737.97;;;23.64;77.81
61682;BME280;47577;43.610;25.010;2022-08-21T05:36:37;99734.78;;;23.69;75.47
61682;BME280;47577;43.610;25.010;2022-08-21T05:39:03;99726.72;;;23.77;76.87
61682;BME280;47577;43.610;25.010;2022-08-21T05:41:29;99723.72;;;23.80;76.91
61682;BME280;47577;43.610;25.010;2022-08-21T05:43:55;99731.28;;;23.86;75.25
61682;BME280;47577;43.610;25.010;2022-08-21T05:46:21;99723.06;;;23.96;75.92
61682;BME280;47577;43.610;25.010;2022-08-21T05:48:47;99721.81;;;24.08;76.54
61682;BME280;47577;43.610;25.010;2022-08-21T05:51:14;99705.69;;;24.25;73.64
61682;BME280;47577;43.610;25.010;2022-08-21T05:53:41;99695.94;;;24.40;72.02
61682;BME280;47577;43.610;25.010;2022-08-21T05:56:07;99714.53;;;24.71;71.58
61682;BME280;47577;43.610;25.010;2022-08-21T05:58:34;99710.53;;;24.84;71.34
61682;BME280;47577;43.610;25.010;2022-08-21T06:01:00;99709.50;;;24.85;71.95
61682;BME280;47577;43.610;25.010;2022-08-21T06:03:32;99707.50;;;24.87;69.97
61682;BME280;47577;43.610;25.010;2022-08-21T06:05:59;99727.84;;;24.82;68.83
61682;BME280;47577;43.610;25.010;2022-08-21T06:08:27;99733.66;;;24.88;67.75
61682;BME280;47577;43.610;25.010;2022-08-21T06:10:53;99728.25;;;24.96;68.94
61682;BME280;47577;43.610;25.010;2022-08-21T06:13:20;99717.22;;;24.97;68.58
61682;BME280;47577;43.610;25.010;2022-08-21T06:15:46;99716.59;;;25.04;69.19
61682;BME280;47577;43.610;25.010;2022-08-21T06:18:12;99717.69;;;25.19;66.67
61682;BME280;47577;43.610;25.010;2022-08-21T06:20:38;99717.78;;;25.35;67.63
61682;BME280;47577;43.610;25.010;2022-08-21T06:23:04;99712.53;;;25.42;67.16
61682;BME280;47577;43.610;25.010;2022-08-21T06:25:30;99721.91;;;25.48;67.61
61682;BME280;47577;43.610;25.010;2022-08-21T06:28:07;99725.00;;;25.53;67.08
61682;BME280;47577;43.610;25.010;2022-08-21T06:30:34;99719.56;;;25.53;66.27
61682;BME280;47577;43.610;25.010;2022-08-21T06:33:01;99716.13;;;25.51;65.83
61682;BME280;47577;43.610;25.010;2022-08-21T06:35:28;99728.03;;;25.50;65.77
61682;BME280;47577;43.610;25.010;2022-08-21T06:37:55;99736.03;;;25.51;66.12
61682;BME280;47577;43.610;25.010;2022-08-21T06:40:21;99726.16;;;25.50;66.12
61682;BME280;47577;43.610;25.010;2022-08-21T06:42:47;99740.44;;;25.52;64.95
61682;BME280;47577;43.610;25.010;2022-08-21T06:45:13;99742.00;;;25.55;65.42
61682;BME280;47577;43.610;25.010;2022-08-21T06:47:39;99738.78;;;25.60;65.78
61682;BME280;47577;43.610;25.010;2022-08-21T06:50:05;99749.88;;;25.66;64.55
61682;BME280;47577;43.610;25.010;2022-08-21T06:52:34;99739.31;;;25.71;64.33
61682;BME280;47577;43.610;25.010;2022-08-21T06:55:00;99744.28;;;25.76;65.50
61682;BME280;47577;43.610;25.010;2022-08-21T06:57:25;99753.66;;;25.90;65.24
61682;BME280;47577;43.610;25.010;2022-08-21T06:59:51;99755.50;;;25.81;65.98
61682;BME280;47577;43.610;25.010;2022-08-21T07:02:20;99743.78;;;25.81;65.90
61682;BME280;47577;43.610;25.010;2022-08-21T07:04:45;99756.03;;;25.93;65.11
61682;BME280;47577;43.610;25.010;2022-08-21T07:07:11;99750.13;;;25.98;66.30
61682;BME280;47577;43.610;25.010;2022-08-21T07:09:38;99751.03;;;26.15;64.64
61682;BME280;47577;43.610;25.010;2022-08-21T07:12:05;99753.41;;;26.26;61.65
61682;BME280;47577;43.610;25.010;2022-08-21T07:14:30;99762.25;;;26.20;61.32
61682;BME280;47577;43.610;25.010;2022-08-21T07:16:56;99755.88;;;25.95;61.92
61682;BME280;47577;43.610;25.010;2022-08-21T07:19:22;99749.75;;;25.92;64.80
61682;BME280;47577;43.610;25.010;2022-08-21T07:21:48;99749.97;;;25.99;64.39
61682;BME280;47577;43.610;25.010;2022-08-21T07:24:14;99759.38;;;26.13;66.28
61682;BME280;47577;43.610;25.010;2022-08-21T07:26:40;99761.94;;;26.23;63.29
61682;BME280;47577;43.610;25.010;2022-08-21T07:29:06;99755.63;;;26.31;60.15
61682;BME280;47577;43.610;25.010;2022-08-21T07:31:32;99751.53;;;26.43;60.34
61682;BME280;47577;43.610;25.010;2022-08-21T07:34:00;99751.19;;;26.54;59.97
61682;BME280;47577;43.610;25.010;2022-08-21T07:36:26;99748.63;;;26.53;59.63
61682;BME280;47577;43.610;25.010;2022-08-21T07:38:52;99751.19;;;26.54;60.68
61682;BME280;47577;43.610;25.010;2022-08-21T07:41:23;99744.41;;;26.50;61.13
61682;BME280;47577;43.610;25.010;2022-08-21T07:43:50;99747.63;;;26.62;59.13
61682;BME280;47577;43.610;25.010;2022-08-21T07:46:16;99736.06;;;26.52;60.78
61682;BME280;47577;43.610;25.010;2022-08-21T07:48:42;99729.88;;;26.58;60.95
61682;BME280;47577;43.610;25.010;2022-08-21T07:51:12;99734.00;;;26.62;59.96
61682;BME280;47577;43.610;25.010;2022-08-21T08:09:04;99728.38;;;27.44;57.32
61682;BME280;47577;43.610;25.010;2022-08-21T08:11:30;99725.81;;;27.43;58.09
61682;BME280;47577;43.610;25.010;2022-08-21T08:13:56;99726.38;;;27.22;58.41
61682;BME280;47577;43.610;25.010;2022-08-21T08:16:23;99727.22;;;27.30;58.24
61682;BME280;47577;43.610;25.010;2022-08-21T08:18:49;99715.78;;;27.35;58.15
61682;BME280;47577;43.610;25.010;2022-08-21T08:21:15;99723.75;;;27.45;60.25
61682;BME280;47577;43.610;25.010;2022-08-21T08:23:41;99721.72;;;27.39;60.07
61682;BME280;47577;43.610;25.010;2022-08-21T08:26:09;99716.78;;;27.34;59.79
61682;BME280;47577;43.610;25.010;2022-08-21T08:28:34;99719.47;;;27.42;61.19
61682;BME280;47577;43.610;25.010;2022-08-21T08:31:00;99718.66;;;27.42;60.41
61682;BME280;47577;43.610;25.010;2022-08-21T08:33:26;99717.94;;;27.48;58.88
61682;BME280;47577;43.610;25.010;2022-08-21T08:35:52;99723.88;;;27.51;59.78
61682;BME280;47577;43.610;25.010;2022-08-21T08:38:21;99717.94;;;27.48;56.96
61682;BME280;47577;43.610;25.010;2022-08-21T08:43:17;99713.69;;;27.45;59.72
61682;BME280;47577;43.610;25.010;2022-08-21T08:45:46;99707.19;;;27.46;59.70
61682;BME280;47577;43.610;25.010;2022-08-21T08:48:41;99709.69;;;27.56;59.42
61682;BME280;47577;43.610;25.010;2022-08-21T08:51:07;99707.16;;;27.54;58.25
61682;BME280;47577;43.610;25.010;2022-08-21T08:54:01;99697.94;;;27.56;59.19
61682;BME280;47577;43.610;25.010;2022-08-21T08:56:30;99705.78;;;27.50;57.17
61682;BME280;47577;43.610;25.010;2022-08-21T08:59:05;99697.19;;;27.62;58.51
61682;BME280;47577;43.610;25.010;2022-08-21T09:01:33;99692.38;;;27.41;55.76
61682;BME280;47577;43.610;25.010;2022-08-21T09:03:59;99696.94;;;27.48;57.25
61682;BME280;47577;43.610;25.010;2022-08-21T09:06:39;99697.19;;;27.62;58.63
61682;BME280;47577;43.610;25.010;2022-08-21T09:09:45;99689.47;;;27.73;56.36
61682;BME280;47577;43.610;25.010;2022-08-21T09:12:33;99699.84;;;27.78;57.85
61682;BME280;47577;43.610;25.010;2022-08-21T09:15:27;99694.75;;;27.75;55.14
61682;BME280;47577;43.610;25.010;2022-08-21T09:20:41;99684.78;;;27.82;55.67
61682;BME280;47577;43.610;25.010;2022-08-21T09:26:07;99681.16;;;27.90;55.15
61682;BME280;47577;43.610;25.010;2022-08-21T09:28:34;99669.41;;;27.89;55.16
61682;BME280;47577;43.610;25.010;2022-08-21T09:31:25;99678.59;;;27.97;54.64
61682;BME280;47577;43.610;25.010;2022-08-21T09:33:47;99679.56;;;28.04;53.18
61682;BME280;47577;43.610;25.010;2022-08-21T09:36:31;99675.59;;;28.06;53.49
61682;BME280;47577;43.610;25.010;2022-08-21T09:38:57;99672.59;;;27.93;53.92
61682;BME280;47577;43.610;25.010;2022-08-21T09:41:30;99672.13;;;28.13;54.28
61682;BME280;47577;43.610;25.010;2022-08-21T09:43:57;99678.38;;;28.21;53.73
61682;BME280;47577;43.610;25.010;2022-08-21T09:46:25;99666.31;;;28.16;52.83
61682;BME280;47577;43.610;25.010;2022-08-21T09:48:59;99663.88;;;28.21;52.25
61682;BME280;47577;43.610;25.010;2022-08-21T09:51:30;99662.34;;;28.18;51.45
61682;BME280;47577;43.610;25.010;2022-08-21T09:54:10;99662.66;;;28.23;53.53
61682;BME280;47577;43.610;25.010;2022-08-21T09:56:54;99659.94;;;28.23;55.03
61682;BME280;47577;43.610;25.010;2022-08-21T09:59:39;99654.38;;;28.32;53.69
61682;BME280;47577;43.610;25.010;2022-08-21T10:02:26;99656.69;;;28.43;52.79
61682;BME280;47577;43.610;25.010;2022-08-21T10:05:08;99655.81;;;28.42;52.15
61682;BME280;47577;43.610;25.010;2022-08-21T10:07:40;99657.41;;;28.37;51.55
61682;BME280;47577;43.610;25.010;2022-08-21T10:10:18;99652.88;;;28.29;50.93
61682;BME280;47577;43.610;25.010;2022-08-21T10:21:04;99647.97;;;28.62;54.66
61682;BME280;47577;43.610;25.010;2022-08-21T10:23:47;99644.75;;;28.74;54.77
61682;BME280;47577;43.610;25.010;2022-08-21T10:29:02;99639.84;;;28.69;53.76
61682;BME280;47577;43.610;25.010;2022-08-21T10:31:32;99642.03;;;28.74;53.86
61682;BME280;47577;43.610;25.010;2022-08-21T10:36:36;99644.47;;;28.84;52.70
61682;BME280;47577;43.610;25.010;2022-08-21T10:47:30;99624.56;;;28.90;52.01
61682;BME280;47577;43.610;25.010;2022-08-21T10:50:08;99628.03;;;28.98;52.63
61682;BME280;47577;43.610;25.010;2022-08-21T10:55:15;99608.31;;;29.03;52.23
61682;BME280;47577;43.610;25.010;2022-08-21T11:00:23;99607.88;;;28.99;52.89
61682;BME280;47577;43.610;25.010;2022-08-21T11:03:05;99617.63;;;29.09;52.46
61682;BME280;47577;43.610;25.010;2022-08-21T11:05:39;99611.16;;;29.10;52.72
61682;BME280;47577;43.610;25.010;2022-08-21T11:08:15;99608.97;;;29.20;52.60
61682;BME280;47577;43.610;25.010;2022-08-21T11:10:44;99611.22;;;29.31;52.10
61682;BME280;47577;43.610;25.010;2022-08-21T11:13:19;99608.00;;;29.28;53.24
61682;BME280;47577;43.610;25.010;2022-08-21T11:19:33;99594.94;;;28.93;53.91
61682;BME280;47577;43.610;25.010;2022-08-21T11:25:03;99601.44;;;28.92;53.29
61682;BME280;47577;43.610;25.010;2022-08-21T11:30:08;99582.50;;;28.91;54.98
61682;BME280;47577;43.610;25.010;2022-08-21T11:38:20;99577.25;;;29.26;53.17
61682;BME280;47577;43.610;25.010;2022-08-21T11:43:40;99568.16;;;29.62;51.27
61682;BME280;47577;43.610;25.010;2022-08-21T11:46:33;99565.41;;;29.62;51.81
61682;BME280;47577;43.610;25.010;2022-08-21T11:52:02;99561.66;;;29.84;51.21
61682;BME280;47577;43.610;25.010;2022-08-21T11:54:41;99555.38;;;29.90;51.77
61682;BME280;47577;43.610;25.010;2022-08-21T11:57:23;99553.66;;;29.46;51.55
61682;BME280;47577;43.610;25.010;2022-08-21T11:59:59;99548.59;;;29.65;51.67
61682;BME280;47577;43.610;25.010;2022-08-21T12:02:33;99561.91;;;29.68;51.95
61682;BME280;47577;43.610;25.010;2022-08-21T12:05:04;99554.00;;;29.80;52.04
61682;BME280;47577;43.610;25.010;2022-08-21T12:07:36;99558.13;;;29.90;50.93
61682;BME280;47577;43.610;25.010;2022-08-21T12:10:06;99548.25;;;29.75;50.70
61682;BME280;47577;43.610;25.010;2022-08-21T12:12:35;99548.34;;;29.81;50.12
61682;BME280;47577;43.610;25.010;2022-08-21T12:18:20;99551.06;;;30.09;49.82
61682;BME280;47577;43.610;25.010;2022-08-21T12:23:48;99543.72;;;30.10;49.26
61682;BME280;47577;43.610;25.010;2022-08-21T12:26:35;99531.25;;;30.07;49.29
61682;BME280;47577;43.610;25.010;2022-08-21T12:29:24;99536.88;;;30.27;49.94
61682;BME280;47577;43.610;25.010;2022-08-21T12:32:03;99525.19;;;30.40;48.70
61682;BME280;47577;43.610;25.010;2022-08-21T12:37:19;99523.81;;;29.73;50.19
61682;BME280;47577;43.610;25.010;2022-08-21T12:39:49;99513.75;;;30.02;48.87
61682;BME280;47577;43.610;25.010;2022-08-21T12:42:23;99513.94;;;30.35;48.53
61682;BME280;47577;43.610;25.010;2022-08-21T12:45:00;99496.38;;;30.23;48.88
61682;BME280;47577;43.610;25.010;2022-08-21T12:47:34;99498.66;;;30.54;48.50
61682;BME280;47577;43.610;25.010;2022-08-21T12:50:11;99500.66;;;30.80;46.44
61682;BME280;47577;43.610;25.010;2022-08-21T12:52:45;99496.44;;;30.78;47.03
61682;BME280;47577;43.610;25.010;2022-08-21T12:55:26;99494.16;;;30.95;45.89
61682;BME280;47577;43.610;25.010;2022-08-21T12:57:52;99481.56;;;31.01;45.55
61682;BME280;47577;43.610;25.010;2022-08-21T13:00:22;99492.16;;;31.17;45.04
61682;BME280;47577;43.610;25.010;2022-08-21T13:02:50;99497.03;;;31.28;45.45
61682;BME280;47577;43.610;25.010;2022-08-21T13:07:50;99488.38;;;31.31;44.86
61682;BME280;47577;43.610;25.010;2022-08-21T13:10:23;99491.75;;;31.33;44.90
61682;BME280;47577;43.610;25.010;2022-08-21T13:12:50;99491.13;;;31.25;44.84
61682;BME280;47577;43.610;25.010;2022-08-21T13:15:28;99495.75;;;31.31;44.25
61682;BME280;47577;43.610;25.010;2022-08-21T13:17:54;99491.34;;;31.30;44.52
61682;BME280;47577;43.610;25.010;2022-08-21T13:20:26;99503.78;;;31.32;44.43
61682;BME280;47577;43.610;25.010;2022-08-21T13:22:53;99494.09;;;31.43;43.70
61682;BME280;47577;43.610;25.010;2022-08-21T13:25:24;99501.50;;;31.43;43.74
61682;BME280;47577;43.610;25.010;2022-08-21T13:28:05;99502.06;;;31.18;43.41
61682;BME280;47577;43.610;25.010;2022-08-21T13:30:32;99497.03;;;31.22;44.11
61682;BME280;47577;43.610;25.010;2022-08-21T13:33:00;99495.13;;;31.22;45.46
61682;BME280;47577;43.610;25.010;2022-08-21T13:35:49;99496.78;;;31.16;45.68
61682;BME280;47577;43.610;25.010;2022-08-21T13:38:18;99491.50;;;31.08;45.52
61682;BME280;47577;43.610;25.010;2022-08-21T13:40:49;99495.31;;;31.14;44.33
61682;BME280;47577;43.610;25.010;2022-08-21T13:43:21;99491.47;;;31.02;45.55
61682;BME280;47577;43.610;25.010;2022-08-21T13:45:53;99484.59;;;30.71;46.44
61682;BME280;47577;43.610;25.010;2022-08-21T13:48:20;99482.41;;;30.53;47.71
61682;BME280;47577;43.610;25.010;2022-08-21T13:50:47;99484.72;;;30.49;47.76
61682;BME280;47577;43.610;25.010;2022-08-21T13:55:47;99486.66;;;30.55;46.97
61682;BME280;47577;43.610;25.010;2022-08-21T13:58:45;99482.88;;;30.63;47.36
61682;BME280;47577;43.610;25.010;2022-08-21T14:01:30;99488.41;;;30.70;46.11
61682;BME280;47577;43.610;25.010;2022-08-21T14:04:08;99493.91;;;30.70;47.46
61682;BME280;47577;43.610;25.010;2022-08-21T14:06:41;99488.31;;;30.56;46.85
61682;BME280;47577;43.610;25.010;2022-08-21T14:09:26;99480.47;;;30.40;46.29
61682;BME280;47577;43.610;25.010;2022-08-21T14:11:54;99478.03;;;30.23;47.17
61682;BME280;47577;43.610;25.010;2022-08-21T14:14:31;99486.03;;;30.25;47.42
61682;BME280;47577;43.610;25.010;2022-08-21T14:17:01;99493.25;;;30.33;46.51
61682;BME280;47577;43.610;25.010;2022-08-21T14:19:36;99485.59;;;30.21;47.14
61682;BME280;47577;43.610;25.010;2022-08-21T14:25:25;99482.56;;;30.09;47.10
61682;BME280;47577;43.610;25.010;2022-08-21T14:30:29;99475.41;;;30.08;46.27
61682;BME280;47577;43.610;25.010;2022-08-21T14:32:55;99471.56;;;30.03;45.91
61682;BME280;47577;43.610;25.010;2022-08-21T14:35:21;99463.72;;;29.93;45.80